sensor_id;sensor_type;location;lat;lon;timestamp;P1;durP1;ratioP1;P2;durP2;ratioP2
64291;SDS011;50628;51.008;13.658;2024-03-22T00:01:13;13.43;;;9.50;;
64291;SDS011;50628;51.008;13.658;2024-03-22T00:06:16;14.93;;;9.10;;
64291;SDS011;50628;51.008;13.658;2024-03-22T00:11:18;13.60;;;10.50;;
64291;SDS011;50628;51.008;13.658;2024-03-22T00:16:19;13.30;;;9.97;;
64291;SDS011;50628;51.008;13.658;2024-03-22T00:21:23;13.57;;;9.83;;
64291;SDS011;50628;51.008;13.658;2024-03-22T00:26:25;18.40;;;11.27;;
64291;SDS011;50628;51.008;13.658;2024-03-22T00:31:27;14.70;;;9.97;;
64291;SDS011;50628;51.008;13.658;2024-03-22T00:36:30;15.40;;;10.53;;
64291;SDS011;50628;51.008;13.658;2024-03-22T00:41:32;14.77;;;10.13;;
64291;SDS011;50628;51.008;13.658;2024-03-22T00:46:33;14.27;;;10.33;;
64291;SDS011;50628;51.008;13.658;2024-03-22T00:51:37;14.53;;;10.10;;
64291;SDS011;50628;51.008;13.658;2024-03-22T00:56:39;12.63;;;9.50;;
64291;SDS011;50628;51.008;13.658;2024-03-22T01:01:41;18.00;;;9.80;;
64291;SDS011;50628;51.008;13.658;2024-03-22T01:06:44;12.13;;;9.33;;
64291;SDS011;50628;51.008;13.658;2024-03-22T01:11:46;16.53;;;10.13;;
64291;SDS011;50628;51.008;13.658;2024-03-22T01:16:48;13.07;;;10.13;;
64291;SDS011;50628;51.008;13.658;2024-03-22T01:21:51;13.33;;;10.47;;
64291;SDS011;50628;51.008;13.658;2024-03-22T01:26:53;13.87;;;10.90;;
64291;SDS011;50628;51.008;13.658;2024-03-22T01:31:54;12.63;;;9.30;;
64291;SDS011;50628;51.008;13.658;2024-03-22T01:36:58;12.40;;;9.60;;
64291;SDS011;50628;51.008;13.658;2024-03-22T01:41:59;14.77;;;9.87;;
64291;SDS011;50628;51.008;13.658;2024-03-22T01:47:01;15.77;;;10.23;;
64291;SDS011;50628;51.008;13.658;2024-03-22T01:52:05;13.97;;;10.50;;
64291;SDS011;50628;51.008;13.658;2024-03-22T01:57:07;12.83;;;9.93;;
64291;SDS011;50628;51.008;13.658;2024-03-22T02:02:10;18.07;;;11.20;;
64291;SDS011;50628;51.008;13.658;2024-03-22T02:07:14;21.17;;;12.53;;
64291;SDS011;50628;51.008;13.658;2024-03-22T02:12:16;18.57;;;13.37;;
64291;SDS011;50628;51.008;13.658;2024-03-22T02:17:18;21.10;;;13.37;;
64291;SDS011;50628;51.008;13.658;2024-03-22T02:22:21;18.17;;;13.67;;
64291;SDS011;50628;51.008;13.658;2024-03-22T02:27:24;18.90;;;13.17;;
64291;SDS011;50628;51.008;13.658;2024-03-22T02:32:26;14.93;;;11.63;;
64291;SDS011;50628;51.008;13.658;2024-03-22T02:37:28;18.30;;;12.77;;
64291;SDS011;50628;51.008;13.658;2024-03-22T02:42:31;20.07;;;14.20;;
64291;SDS011;50628;51.008;13.658;2024-03-22T02:47:33;21.33;;;13.77;;
64291;SDS011;50628;51.008;13.658;2024-03-22T02:52:35;23.63;;;14.70;;
64291;SDS011;50628;51.008;13.658;2024-03-22T02:57:38;20.90;;;14.60;;
64291;SDS011;50628;51.008;13.658;2024-03-22T03:02:40;22.03;;;15.03;;
64291;SDS011;50628;51.008;13.658;2024-03-22T03:07:42;22.53;;;14.57;;
64291;SDS011;50628;51.008;13.658;2024-03-22T03:12:45;20.57;;;14.83;;
64291;SDS011;50628;51.008;13.658;2024-03-22T03:17:47;21.90;;;14.27;;
64291;SDS011;50628;51.008;13.658;2024-03-22T03:22:48;24.73;;;16.27;;
64291;SDS011;50628;51.008;13.658;2024-03-22T03:27:52;20.97;;;15.10;;
64291;SDS011;50628;51.008;13.658;2024-03-22T03:32:53;23.53;;;16.50;;
64291;SDS011;50628;51.008;13.658;2024-03-22T03:37:55;24.13;;;16.73;;
64291;SDS011;50628;51.008;13.658;2024-03-22T03:42:58;24.37;;;16.23;;
64291;SDS011;50628;51.008;13.658;2024-03-22T03:48:00;23.80;;;16.07;;
64291;SDS011;50628;51.008;13.658;2024-03-22T03:53:02;24.03;;;16.37;;
64291;SDS011;50628;51.008;13.658;2024-03-22T03:58:06;24.77;;;16.80;;
64291;SDS011;50628;51.008;13.658;2024-03-22T04:03:08;22.37;;;15.93;;
64291;SDS011;50628;51.008;13.658;2024-03-22T04:08:10;21.47;;;15.97;;
64291;SDS011;50628;51.008;13.658;2024-03-22T04:13:13;21.10;;;14.83;;
64291;SDS011;50628;51.008;13.658;2024-03-22T04:18:15;19.17;;;14.20;;
64291;SDS011;50628;51.008;13.658;2024-03-22T04:23:16;19.00;;;12.73;;
64291;SDS011;50628;51.008;13.658;2024-03-22T04:28:20;16.83;;;12.07;;
64291;SDS011;50628;51.008;13.658;2024-03-22T04:33:22;16.17;;;12.03;;
64291;SDS011;50628;51.008;13.658;2024-03-22T04:38:23;17.67;;;11.87;;
64291;SDS011;50628;51.008;13.658;2024-03-22T04:43:27;16.33;;;11.03;;
64291;SDS011;50628;51.008;13.658;2024-03-22T04:48:29;15.93;;;10.23;;
64291;SDS011;50628;51.008;13.658;2024-03-22T04:53:31;16.93;;;9.77;;
64291;SDS011;50628;51.008;13.658;2024-03-22T04:58:34;14.83;;;8.93;;
64291;SDS011;50628;51.008;13.658;2024-03-22T05:03:36;13.97;;;8.37;;
64291;SDS011;50628;51.008;13.658;2024-03-22T05:08:38;11.70;;;8.00;;
64291;SDS011;50628;51.008;13.658;2024-03-22T05:13:43;14.23;;;8.17;;
64291;SDS011;50628;51.008;13.658;2024-03-22T05:18:44;9.97;;;6.87;;
64291;SDS011;50628;51.008;13.658;2024-03-22T05:23:46;12.53;;;6.93;;
64291;SDS011;50628;51.008;13.658;2024-03-22T05:28:49;10.00;;;7.43;;
64291;SDS011;50628;51.008;13.658;2024-03-22T05:33:51;12.37;;;7.80;;
64291;SDS011;50628;51.008;13.658;2024-03-22T05:38:53;10.37;;;7.10;;
64291;SDS011;50628;51.008;13.658;2024-03-22T05:43:56;7.67;;;5.97;;
64291;SDS011;50628;51.008;13.658;2024-03-22T05:48:58;7.77;;;6.20;;
64291;SDS011;50628;51.008;13.658;2024-03-22T05:54:00;8.27;;;5.63;;
64291;SDS011;50628;51.008;13.658;2024-03-22T05:59:04;8.37;;;5.80;;
64291;SDS011;50628;51.008;13.658;2024-03-22T06:04:06;11.03;;;5.03;;
64291;SDS011;50628;51.008;13.658;2024-03-22T06:09:08;11.00;;;5.93;;
64291;SDS011;50628;51.008;13.658;2024-03-22T06:14:12;9.33;;;5.33;;
64291;SDS011;50628;51.008;13.658;2024-03-22T06:19:14;8.00;;;5.03;;
64291;SDS011;50628;51.008;13.658;2024-03-22T06:24:16;9.03;;;4.80;;
64291;SDS011;50628;51.008;13.658;2024-03-22T06:29:19;7.03;;;4.70;;
64291;SDS011;50628;51.008;13.658;2024-03-22T06:34:21;7.87;;;4.83;;
64291;SDS011;50628;51.008;13.658;2024-03-22T06:39:23;5.70;;;4.57;;
64291;SDS011;50628;51.008;13.658;2024-03-22T06:44:26;6.97;;;4.80;;
64291;SDS011;50628;51.008;13.658;2024-03-22T06:49:28;5.83;;;4.47;;
64291;SDS011;50628;51.008;13.658;2024-03-22T06:54:30;7.63;;;5.33;;
64291;SDS011;50628;51.008;13.658;2024-03-22T06:59:33;11.87;;;4.60;;
64291;SDS011;50628;51.008;13.658;2024-03-22T07:04:35;8.27;;;5.00;;
64291;SDS011;50628;51.008;13.658;2024-03-22T07:09:37;11.17;;;5.73;;
64291;SDS011;50628;51.008;13.658;2024-03-22T07:14:41;11.63;;;6.00;;
64291;SDS011;50628;51.008;13.658;2024-03-22T07:19:43;8.07;;;5.13;;
64291;SDS011;50628;51.008;13.658;2024-03-22T07:24:45;7.30;;;5.13;;
64291;SDS011;50628;51.008;13.658;2024-03-22T07:29:49;11.17;;;5.47;;
64291;SDS011;50628;51.008;13.658;2024-03-22T07:34:50;8.60;;;5.83;;
64291;SDS011;50628;51.008;13.658;2024-03-22T07:39:52;10.07;;;5.80;;
64291;SDS011;50628;51.008;13.658;2024-03-22T07:44:55;9.83;;;6.47;;
64291;SDS011;50628;51.008;13.658;2024-03-22T07:49:57;8.00;;;4.90;;
64291;SDS011;50628;51.008;13.658;2024-03-22T07:54:59;13.83;;;5.93;;
64291;SDS011;50628;51.008;13.658;2024-03-22T08:00:04;12.97;;;7.77;;
64291;SDS011;50628;51.008;13.658;2024-03-22T08:05:12;11.53;;;7.20;;
64291;SDS011;50628;51.008;13.658;2024-03-22T08:10:14;12.30;;;7.73;;
64291;SDS011;50628;51.008;13.658;2024-03-22T08:15:17;14.03;;;8.70;;
64291;SDS011;50628;51.008;13.658;2024-03-22T08:20:19;12.60;;;9.17;;
64291;SDS011;50628;51.008;13.658;2024-03-22T08:25:21;14.57;;;8.63;;
64291;SDS011;50628;51.008;13.658;2024-03-22T08:30:26;12.93;;;8.20;;
64291;SDS011;50628;51.008;13.658;2024-03-22T08:35:28;12.37;;;8.40;;
64291;SDS011;50628;51.008;13.658;2024-03-22T08:40:29;17.00;;;8.90;;
64291;SDS011;50628;51.008;13.658;2024-03-22T08:45:33;10.87;;;7.23;;
64291;SDS011;50628;51.008;13.658;2024-03-22T08:50:34;21.20;;;7.87;;
64291;SDS011;50628;51.008;13.658;2024-03-22T08:55:36;9.80;;;6.40;;
64291;SDS011;50628;51.008;13.658;2024-03-22T09:00:39;10.23;;;6.13;;
64291;SDS011;50628;51.008;13.658;2024-03-22T09:05:42;8.83;;;5.37;;
64291;SDS011;50628;51.008;13.658;2024-03-22T09:10:44;11.57;;;6.83;;
64291;SDS011;50628;51.008;13.658;2024-03-22T09:15:47;8.87;;;5.13;;
64291;SDS011;50628;51.008;13.658;2024-03-22T09:20:49;9.77;;;6.10;;
64291;SDS011;50628;51.008;13.658;2024-03-22T09:25:51;7.77;;;4.70;;
64291;SDS011;50628;51.008;13.658;2024-03-22T09:30:54;10.30;;;5.20;;
64291;SDS011;50628;51.008;13.658;2024-03-22T09:35:56;17.33;;;5.50;;
64291;SDS011;50628;51.008;13.658;2024-03-22T09:40:59;9.77;;;5.40;;
64291;SDS011;50628;51.008;13.658;2024-03-22T09:46:02;9.70;;;5.07;;
64291;SDS011;50628;51.008;13.658;2024-03-22T09:51:04;12.03;;;4.63;;
64291;SDS011;50628;51.008;13.658;2024-03-22T09:56:06;5.43;;;3.60;;
64291;SDS011;50628;51.008;13.658;2024-03-22T10:01:10;9.33;;;3.87;;
64291;SDS011;50628;51.008;13.658;2024-03-22T10:06:13;11.63;;;4.63;;
64291;SDS011;50628;51.008;13.658;2024-03-22T10:11:15;7.90;;;3.97;;
64291;SDS011;50628;51.008;13.658;2024-03-22T10:16:18;7.03;;;3.83;;
64291;SDS011;50628;51.008;13.658;2024-03-22T10:21:20;13.47;;;3.50;;
64291;SDS011;50628;51.008;13.658;2024-03-22T10:26:21;5.47;;;3.53;;
64291;SDS011;50628;51.008;13.658;2024-03-22T10:31:25;9.20;;;3.80;;
64291;SDS011;50628;51.008;13.658;2024-03-22T10:36:28;10.57;;;4.50;;
64291;SDS011;50628;51.008;13.658;2024-03-22T10:41:31;6.23;;;4.00;;
64291;SDS011;50628;51.008;13.658;2024-03-22T10:46:34;8.30;;;4.15;;
64291;SDS011;50628;51.008;13.658;2024-03-22T10:51:36;6.90;;;3.70;;
64291;SDS011;50628;51.008;13.658;2024-03-22T10:56:39;5.95;;;3.55;;
64291;SDS011;50628;51.008;13.658;2024-03-22T11:01:46;5.57;;;3.00;;
64291;SDS011;50628;51.008;13.658;2024-03-22T11:06:48;8.48;;;3.28;;
64291;SDS011;50628;51.008;13.658;2024-03-22T11:11:51;7.68;;;2.90;;
64291;SDS011;50628;51.008;13.658;2024-03-22T11:16:55;5.55;;;3.20;;
64291;SDS011;50628;51.008;13.658;2024-03-22T11:21:57;6.20;;;3.65;;
64291;SDS011;50628;51.008;13.658;2024-03-22T11:26:59;4.65;;;3.60;;
64291;SDS011;50628;51.008;13.658;2024-03-22T11:32:02;5.07;;;3.40;;
64291;SDS011;50628;51.008;13.658;2024-03-22T11:37:05;6.05;;;4.45;;
64291;SDS011;50628;51.008;13.658;2024-03-22T11:42:10;4.90;;;4.10;;
64291;SDS011;50628;51.008;13.658;2024-03-22T11:47:15;9.52;;;4.50;;
64291;SDS011;50628;51.008;13.658;2024-03-22T11:52:17;6.63;;;3.75;;
64291;SDS011;50628;51.008;13.658;2024-03-22T11:57:20;5.03;;;2.58;;
64291;SDS011;50628;51.008;13.658;2024-03-22T12:02:23;8.75;;;3.47;;
64291;SDS011;50628;51.008;13.658;2024-03-22T12:07:25;13.57;;;4.15;;
64291;SDS011;50628;51.008;13.658;2024-03-22T12:12:27;5.05;;;3.97;;
64291;SDS011;50628;51.008;13.658;2024-03-22T12:17:31;5.10;;;3.40;;
64291;SDS011;50628;51.008;13.658;2024-03-22T12:22:33;5.40;;;4.25;;
64291;SDS011;50628;51.008;13.658;2024-03-22T12:27:35;5.78;;;4.13;;
64291;SDS011;50628;51.008;13.658;2024-03-22T12:32:38;11.68;;;5.18;;
64291;SDS011;50628;51.008;13.658;2024-03-22T12:37:40;8.52;;;4.32;;
64291;SDS011;50628;51.008;13.658;2024-03-22T12:42:42;7.07;;;3.97;;
64291;SDS011;50628;51.008;13.658;2024-03-22T12:47:46;9.65;;;5.05;;
64291;SDS011;50628;51.008;13.658;2024-03-22T12:52:48;6.05;;;4.35;;
64291;SDS011;50628;51.008;13.658;2024-03-22T12:57:51;8.30;;;5.78;;
64291;SDS011;50628;51.008;13.658;2024-03-22T13:02:55;11.23;;;4.80;;
64291;SDS011;50628;51.008;13.658;2024-03-22T13:07:57;7.72;;;4.75;;
64291;SDS011;50628;51.008;13.658;2024-03-22T13:12:59;10.63;;;4.35;;
64291;SDS011;50628;51.008;13.658;2024-03-22T13:18:02;7.63;;;4.43;;
64291;SDS011;50628;51.008;13.658;2024-03-22T13:23:04;8.88;;;5.13;;
64291;SDS011;50628;51.008;13.658;2024-03-22T13:28:08;12.98;;;5.20;;
64291;SDS011;50628;51.008;13.658;2024-03-22T13:33:11;9.85;;;5.88;;
64291;SDS011;50628;51.008;13.658;2024-03-22T13:38:13;9.02;;;4.90;;
64291;SDS011;50628;51.008;13.658;2024-03-22T13:43:16;8.45;;;5.07;;
64291;SDS011;50628;51.008;13.658;2024-03-22T13:48:20;8.80;;;5.13;;
64291;SDS011;50628;51.008;13.658;2024-03-22T13:53:24;7.43;;;4.88;;
64291;SDS011;50628;51.008;13.658;2024-03-22T13:58:26;8.35;;;4.53;;
64291;SDS011;50628;51.008;13.658;2024-03-22T14:03:30;10.02;;;5.95;;
64291;SDS011;50628;51.008;13.658;2024-03-22T14:08:31;9.65;;;6.05;;
64291;SDS011;50628;51.008;13.658;2024-03-22T14:13:33;7.18;;;4.70;;
64291;SDS011;50628;51.008;13.658;2024-03-22T14:18:37;8.88;;;5.80;;
64291;SDS011;50628;51.008;13.658;2024-03-22T14:23:38;10.77;;;5.43;;
64291;SDS011;50628;51.008;13.658;2024-03-22T14:28:40;15.63;;;5.78;;
64291;SDS011;50628;51.008;13.658;2024-03-22T14:33:45;8.77;;;4.55;;
64291;SDS011;50628;51.008;13.658;2024-03-22T14:38:47;13.27;;;5.93;;
64291;SDS011;50628;51.008;13.658;2024-03-22T14:43:48;12.75;;;5.38;;
64291;SDS011;50628;51.008;13.658;2024-03-22T14:48:54;9.98;;;5.28;;
64291;SDS011;50628;51.008;13.658;2024-03-22T14:53:56;10.77;;;6.22;;
64291;SDS011;50628;51.008;13.658;2024-03-22T14:58:58;9.45;;;6.18;;
64291;SDS011;50628;51.008;13.658;2024-03-22T15:04:03;10.23;;;6.25;;
64291;SDS011;50628;51.008;13.658;2024-03-22T15:09:06;12.70;;;7.80;;
64291;SDS011;50628;51.008;13.658;2024-03-22T15:14:11;12.55;;;7.32;;
64291;SDS011;50628;51.008;13.658;2024-03-22T15:19:14;9.93;;;7.25;;
64291;SDS011;50628;51.008;13.658;2024-03-22T15:24:16;8.85;;;6.30;;
64291;SDS011;50628;51.008;13.658;2024-03-22T15:29:19;8.27;;;5.93;;
64291;SDS011;50628;51.008;13.658;2024-03-22T15:34:22;9.57;;;6.30;;
64291;SDS011;50628;51.008;13.658;2024-03-22T15:39:24;12.85;;;8.70;;
64291;SDS011;50628;51.008;13.658;2024-03-22T15:44:26;15.43;;;8.13;;
64291;SDS011;50628;51.008;13.658;2024-03-22T15:49:30;16.38;;;8.63;;
64291;SDS011;50628;51.008;13.658;2024-03-22T15:54:32;16.67;;;8.25;;
64291;SDS011;50628;51.008;13.658;2024-03-22T15:59:34;13.70;;;8.00;;
64291;SDS011;50628;51.008;13.658;2024-03-22T16:04:37;15.38;;;7.57;;
64291;SDS011;50628;51.008;13.658;2024-03-22T16:09:39;10.93;;;7.00;;
64291;SDS011;50628;51.008;13.658;2024-03-22T16:14:41;10.98;;;7.75;;
64291;SDS011;50628;51.008;13.658;2024-03-22T16:19:44;13.27;;;8.40;;
64291;SDS011;50628;51.008;13.658;2024-03-22T16:24:46;13.82;;;8.00;;
64291;SDS011;50628;51.008;13.658;2024-03-22T16:29:48;10.25;;;8.05;;
64291;SDS011;50628;51.008;13.658;2024-03-22T16:34:51;11.82;;;8.15;;
64291;SDS011;50628;51.008;13.658;2024-03-22T16:39:53;14.40;;;9.35;;
64291;SDS011;50628;51.008;13.658;2024-03-22T16:44:55;10.60;;;8.70;;
64291;SDS011;50628;51.008;13.658;2024-03-22T16:49:58;10.02;;;8.02;;
64291;SDS011;50628;51.008;13.658;2024-03-22T16:55:00;14.55;;;8.05;;
64291;SDS011;50628;51.008;13.658;2024-03-22T17:00:02;10.63;;;8.18;;
64291;SDS011;50628;51.008;13.658;2024-03-22T17:05:08;12.10;;;8.10;;
64291;SDS011;50628;51.008;13.658;2024-03-22T17:10:10;13.45;;;8.50;;
64291;SDS011;50628;51.008;13.658;2024-03-22T17:15:12;17.40;;;9.02;;
64291;SDS011;50628;51.008;13.658;2024-03-22T17:20:15;10.33;;;7.70;;
64291;SDS011;50628;51.008;13.658;2024-03-22T17:25:18;10.53;;;7.70;;
64291;SDS011;50628;51.008;13.658;2024-03-22T17:30:20;11.97;;;7.20;;
64291;SDS011;50628;51.008;13.658;2024-03-22T17:35:23;11.90;;;7.97;;
64291;SDS011;50628;51.008;13.658;2024-03-22T17:40:25;12.40;;;7.47;;
64291;SDS011;50628;51.008;13.658;2024-03-22T17:45:27;12.83;;;7.83;;
64291;SDS011;50628;51.008;13.658;2024-03-22T17:50:30;10.33;;;7.60;;
64291;SDS011;50628;51.008;13.658;2024-03-22T17:55:32;13.43;;;7.28;;
64291;SDS011;50628;51.008;13.658;2024-03-22T18:00:34;9.73;;;8.33;;
64291;SDS011;50628;51.008;13.658;2024-03-22T18:05:37;10.90;;;8.00;;
64291;SDS011;50628;51.008;13.658;2024-03-22T18:10:39;12.53;;;9.50;;
64291;SDS011;50628;51.008;13.658;2024-03-22T18:15:41;12.10;;;8.67;;
64291;SDS011;50628;51.008;13.658;2024-03-22T18:20:44;10.47;;;8.30;;
64291;SDS011;50628;51.008;13.658;2024-03-22T18:25:49;16.43;;;9.03;;
64291;SDS011;50628;51.008;13.658;2024-03-22T18:30:51;14.30;;;9.40;;
64291;SDS011;50628;51.008;13.658;2024-03-22T18:35:54;14.57;;;9.17;;
64291;SDS011;50628;51.008;13.658;2024-03-22T18:40:56;10.70;;;7.87;;
64291;SDS011;50628;51.008;13.658;2024-03-22T18:45:59;13.53;;;9.50;;
64291;SDS011;50628;51.008;13.658;2024-03-22T18:51:03;10.90;;;8.10;;
64291;SDS011;50628;51.008;13.658;2024-03-22T18:56:06;12.03;;;8.10;;
64291;SDS011;50628;51.008;13.658;2024-03-22T19:01:09;15.97;;;8.93;;
64291;SDS011;50628;51.008;13.658;2024-03-22T19:06:12;15.03;;;10.20;;
64291;SDS011;50628;51.008;13.658;2024-03-22T19:11:14;17.33;;;14.60;;
64291;SDS011;50628;51.008;13.658;2024-03-22T19:16:16;15.63;;;12.10;;
64291;SDS011;50628;51.008;13.658;2024-03-22T19:21:19;15.17;;;10.17;;
64291;SDS011;50628;51.008;13.658;2024-03-22T19:26:22;11.37;;;8.87;;
64291;SDS011;50628;51.008;13.658;2024-03-22T19:31:23;15.07;;;8.63;;
64291;SDS011;50628;51.008;13.658;2024-03-22T19:36:27;14.30;;;10.50;;
64291;SDS011;50628;51.008;13.658;2024-03-22T19:41:28;21.30;;;15.47;;
64291;SDS011;50628;51.008;13.658;2024-03-22T19:46:30;20.70;;;16.83;;
64291;SDS011;50628;51.008;13.658;2024-03-22T19:51:34;18.97;;;13.03;;
64291;SDS011;50628;51.008;13.658;2024-03-22T19:56:36;18.53;;;12.90;;
64291;SDS011;50628;51.008;13.658;2024-03-22T20:01:38;18.87;;;13.47;;
64291;SDS011;50628;51.008;13.658;2024-03-22T20:06:41;16.73;;;11.87;;
64291;SDS011;50628;51.008;13.658;2024-03-22T20:11:45;17.00;;;12.20;;
64291;SDS011;50628;51.008;13.658;2024-03-22T20:16:47;16.30;;;12.33;;
64291;SDS011;50628;51.008;13.658;2024-03-22T20:21:50;15.47;;;12.53;;
64291;SDS011;50628;51.008;13.658;2024-03-22T20:26:52;20.73;;;12.47;;
64291;SDS011;50628;51.008;13.658;2024-03-22T20:31:54;17.17;;;13.27;;
